Terminal Aerodrome Forecast
Issued by NWS

Home | Current Version | Previous Version | Text Only | Print | Product List | Glossary On
Versions: 1 2 3 4 5 6 7 8 9 10 11 12 13
000
FTUS45 KPIH 310500
TAFSUN
TAF
KSUN 310520Z 3106/0106 VRB04KT P6SM SCT200
     FM311800 15008KT P6SM FEW150 SCT200
     FM312100 16008KT P6SM SCT120 BKN150 BKN200
      AMD LTD TO CLD VIS AND WIND TIL 311300=

USA.gov is the U.S. government's official web portal to all federal, state and local government web resources and services.